Time;durP1;ratioP1;P1;durP2;ratioP2;P2;SDS_P1;SDS_P2;PMS_P1;PMS_P2;Temp;Humidity;BMP_temperature;BMP_pressure;BME280_temperature;BME280_humidity;BME280_pressure;Samples;Min_cycle;Max_cycle;Signal;HPM_P1;HPM_P2
2022/05/01 00:00:25;;;;;;;33.58;14.88;;;;;;;;;;2097016;28;20105;-58
2022/05/01 00:01:27;;;;;;;35.83;16.93;;;;;;;;;;2097167;28;20052;-58
2022/05/01 00:02:28;;;;;;;35.65;15.90;;;;;;;;;;2097104;28;20662;-58
2022/05/01 00:03:34;;;;;;;30.75;13.65;;;;;;;;;;2097030;28;20436;-58
2022/05/01 00:04:35;;;;;;;36.65;16.63;;;;;;;;;;2097212;28;20126;-58
2022/05/01 00:05:36;;;;;;;35.78;13.90;;;;;;;;;;2098424;28;20512;-58
2022/05/01 00:06:38;;;;;;;33.80;16.67;;;;;;;;;;2098792;28;20127;-58
2022/05/01 00:07:39;;;;;;;29.52;13.23;;;;;;;;;;2101885;28;20134;-58
2022/05/01 00:08:41;;;;;;;34.27;14.90;;;;;;;;;;2106997;28;20052;-58
2022/05/01 00:09:41;;;;;;;;;;;;;;;;;;2107415;28;20131;-58
2022/05/01 00:10:43;;;;;;;32.78;13.35;;;;;;;;;;2107045;28;19974;-58
2022/05/01 00:12:04;;;;;;;29.45;12.93;;;;;;;;;;2107039;28;20260;-58
2022/05/01 00:13:08;;;;;;;30.05;13.45;;;;;;;;;;2106914;28;20614;-58
2022/05/01 00:14:09;;;;;;;32.63;16.02;;;;;;;;;;2107041;28;20157;-58
2022/05/01 00:15:10;;;;;;;27.80;12.65;;;;;;;;;;2107043;28;20133;-58
2022/05/01 00:16:11;;;;;;;30.88;13.43;;;;;;;;;;2106945;28;20055;-58
2022/05/01 00:17:13;;;;;;;32.53;16.45;;;;;;;;;;2107012;28;20075;-58
2022/05/01 00:18:14;;;;;;;35.58;14.05;;;;;;;;;;2106976;28;20135;-58
2022/05/01 00:19:15;;;;;;;31.27;16.50;;;;;;;;;;2099014;28;20048;-58
2022/05/01 00:20:36;;;;;;;28.65;13.55;;;;;;;;;;2098545;28;20052;-58
2022/05/01 00:21:38;;;;;;;27.80;12.85;;;;;;;;;;2098598;28;20049;-58
2022/05/01 00:22:39;;;;;;;31.67;12.98;;;;;;;;;;2098606;28;20044;-58
2022/05/01 00:23:40;;;;;;;31.42;13.60;;;;;;;;;;2098433;28;20488;-58
2022/05/01 00:24:41;;;;;;;29.55;14.98;;;;;;;;;;2098628;28;20059;-58
2022/05/01 00:25:42;;;;;;;33.42;13.98;;;;;;;;;;2098640;28;20124;-58
2022/05/01 00:26:43;;;;;;;31.35;13.63;;;;;;;;;;2098472;28;20473;-58
2022/05/01 00:27:44;;;;;;;28.85;14.00;;;;;;;;;;2098442;28;20097;-58
2022/05/01 00:28:46;;;;;;;30.05;12.38;;;;;;;;;;2098424;28;20486;-58
2022/05/01 00:29:46;;;;;;;29.83;14.13;;;;;;;;;;2098468;28;20097;-58
2022/05/01 00:30:49;;;;;;;32.80;16.13;;;;;;;;;;2098574;28;20051;-58
2022/05/01 00:31:50;;;;;;;32.38;14.57;;;;;;;;;;2098494;28;20068;-58
2022/05/01 00:37:10;;;;;;;37.70;15.38;;;;;;;;;;2072935;28;20054;-46
2022/05/01 00:38:11;;;;;;;30.35;14.80;;;;;;;;;;2072657;28;20103;-46
2022/05/01 00:39:12;;;;;;;36.65;17.38;;;;;;;;;;2072629;28;20388;-47
2022/05/01 00:40:14;;;;;;;29.70;13.52;;;;;;;;;;2086822;28;20129;-47
2022/05/01 00:41:15;;;;;;;31.67;14.52;;;;;;;;;;2098348;28;20413;-46
2022/05/01 00:42:17;;;;;;;35.28;16.73;;;;;;;;;;2098300;28;20059;-47
2022/05/01 00:43:18;;;;;;;28.50;16.00;;;;;;;;;;2098325;28;20478;-46
2022/05/01 00:44:21;;;;;;;35.03;14.83;;;;;;;;;;2098418;28;20083;-47
2022/05/01 00:45:22;;;;;;;31.60;16.58;;;;;;;;;;2098281;28;20045;-47
2022/05/01 00:46:24;;;;;;;29.83;14.13;;;;;;;;;;2098422;28;20084;-47
2022/05/01 00:47:25;;;;;;;37.88;17.70;;;;;;;;;;2098389;28;20290;-46
2022/05/01 00:48:26;;;;;;;27.55;13.75;;;;;;;;;;2098320;28;20048;-46
2022/05/01 00:49:28;;;;;;;37.30;14.95;;;;;;;;;;2098434;28;20132;-46
2022/05/01 00:50:29;;;;;;;35.83;17.98;;;;;;;;;;2098250;28;20131;-46
2022/05/01 00:51:32;;;;;;;29.52;14.68;;;;;;;;;;2098326;28;20401;-46
2022/05/01 00:52:34;;;;;;;35.20;17.15;;;;;;;;;;2098301;28;20086;-46
2022/05/01 00:53:35;;;;;;;36.83;15.07;;;;;;;;;;2098367;28;20121;-47
2022/05/01 00:54:37;;;;;;;30.53;13.37;;;;;;;;;;2098289;28;20555;-46
2022/05/01 00:55:38;;;;;;;35.88;16.33;;;;;;;;;;2098321;28;20285;-47
2022/05/01 00:56:41;;;;;;;33.22;13.85;;;;;;;;;;2098159;28;20131;-47
2022/05/01 00:57:43;;;;;;;38.03;17.25;;;;;;;;;;2098197;28;20490;-46
2022/05/01 00:58:45;;;;;;;37.13;17.38;;;;;;;;;;2098288;28;20127;-47
2022/05/01 00:59:46;;;;;;;34.65;16.17;;;;;;;;;;2098257;28;20409;-46
2022/05/01 01:00:48;;;;;;;28.30;14.45;;;;;;;;;;2098243;28;20593;-46
2022/05/01 01:01:50;;;;;;;36.25;16.58;;;;;;;;;;2098397;28;20055;-46
2022/05/01 01:02:51;;;;;;;37.35;16.92;;;;;;;;;;2098150;28;20477;-46
2022/05/01 01:03:54;;;;;;;27.48;13.20;;;;;;;;;;2101142;28;20127;-47
2022/05/01 01:04:55;;;;;;;36.17;17.58;;;;;;;;;;2106522;28;20050;-46
2022/05/01 01:05:57;;;;;;;27.73;14.38;;;;;;;;;;2106614;28;20124;-47
2022/05/01 01:06:57;;;;;;;37.20;17.75;;;;;;;;;;2106725;28;20094;-47
2022/05/01 01:08:00;;;;;;;31.35;14.68;;;;;;;;;;2106627;28;20444;-46
2022/05/01 01:09:01;;;;;;;35.25;16.25;;;;;;;;;;2106503;28;20465;-47
2022/05/01 01:10:03;;;;;;;36.03;18.27;;;;;;;;;;2106637;28;20135;-47
2022/05/01 01:11:07;;;;;;;33.45;15.48;;;;;;;;;;2106749;28;20056;-46
2022/05/01 01:13:38;;;;;;;32.90;14.90;;;;;;;;;;2106615;28;20048;-47
2022/05/01 01:14:40;;;;;;;31.25;15.15;;;;;;;;;;2106451;28;20077;-47
2022/05/01 01:15:41;;;;;;;37.00;17.60;;;;;;;;;;2106688;28;20044;-46
2022/05/01 01:16:44;;;;;;;32.90;13.75;;;;;;;;;;2106498;28;20510;-47
2022/05/01 01:17:46;;;;;;;32.28;17.38;;;;;;;;;;2106495;28;20063;-47
2022/05/01 01:18:48;;;;;;;31.65;15.52;;;;;;;;;;2102320;28;20421;-47
2022/05/01 01:19:48;;;;;;;33.35;14.07;;;;;;;;;;2098077;28;20041;-46
2022/05/01 01:20:52;;;;;;;32.20;15.70;;;;;;;;;;2098111;28;20052;-46
2022/05/01 01:21:53;;;;;;;35.40;17.88;;;;;;;;;;2097950;28;20131;-46
2022/05/01 01:22:55;;;;;;;30.65;15.07;;;;;;;;;;2098301;28;20053;-46
2022/05/01 01:23:57;;;;;;;37.17;17.20;;;;;;;;;;2098046;28;20068;-46
2022/05/01 01:24:57;;;;;;;;;;;;;;;;;;2098650;28;20051;-47
2022/05/01 01:25:59;;;;;;;32.40;13.35;;;;;;;;;;2098113;28;19959;-46
2022/05/01 01:27:01;;;;;;;31.98;15.50;;;;;;;;;;2098222;28;20074;-46
2022/05/01 01:28:05;;;;;;;34.00;14.52;;;;;;;;;;2098157;28;20123;-47
2022/05/01 01:31:41;;;;;;;28.15;13.32;;;;;;;;;;2098076;28;20478;-46
2022/05/01 01:32:43;;;;;;;32.67;14.68;;;;;;;;;;2098001;28;20101;-46
2022/05/01 01:33:44;;;;;;;32.00;16.98;;;;;;;;;;2098169;28;20049;-46
2022/05/01 01:34:47;;;;;;;28.42;14.05;;;;;;;;;;2098091;28;20065;-47
2022/05/01 01:35:48;;;;;;;34.97;17.17;;;;;;;;;;2098106;28;20125;-46
2022/05/01 01:36:51;;;;;;;32.15;15.63;;;;;;;;;;2098070;28;20055;-46
2022/05/01 01:37:52;;;;;;;34.47;15.50;;;;;;;;;;2097989;28;20045;-46
2022/05/01 01:38:54;;;;;;;30.92;14.82;;;;;;;;;;2098031;28;20095;-46
2022/05/01 01:39:55;;;;;;;34.83;14.68;;;;;;;;;;2098010;28;20202;-46
2022/05/01 01:40:58;;;;;;;31.55;15.52;;;;;;;;;;2098031;28;20583;-46
2022/05/01 01:42:02;;;;;;;30.17;14.57;;;;;;;;;;2098121;28;20455;-46
2022/05/01 01:43:04;;;;;;;31.60;15.95;;;;;;;;;;2098206;28;20056;-46
2022/05/01 01:44:06;;;;;;;35.72;15.77;;;;;;;;;;2097871;28;20052;-46
2022/05/01 01:45:07;;;;;;;26.23;13.52;;;;;;;;;;2097932;28;20080;-46
2022/05/01 01:46:08;;;;;;;31.27;16.08;;;;;;;;;;2097987;28;20444;-46
2022/05/01 01:47:12;;;;;;;31.55;13.13;;;;;;;;;;2098246;28;20127;-46
2022/05/01 01:48:14;;;;;;;32.08;16.45;;;;;;;;;;2098027;28;20044;-46
2022/05/01 01:49:15;;;;;;;;;;;;;;;;;;2098486;28;20055;-46
2022/05/01 01:50:16;;;;;;;29.75;13.50;;;;;;;;;;2097857;28;20019;-46
2022/05/01 01:51:18;;;;;;;32.80;14.02;;;;;;;;;;2098040;28;20051;-46
2022/05/01 01:52:19;;;;;;;29.73;16.00;;;;;;;;;;2097980;28;20560;-47
2022/05/01 01:53:20;;;;;;;35.72;15.00;;;;;;;;;;2097791;28;20049;-46
2022/05/01 01:54:21;;;;;;;32.50;14.82;;;;;;;;;;2097954;28;20055;-46
2022/05/01 01:55:23;;;;;;;39.10;14.38;;;;;;;;;;2097865;28;20071;-46
2022/05/01 01:56:23;;;;;;;30.65;14.30;;;;;;;;;;2097904;28;20143;-46
2022/05/01 01:57:25;;;;;;;34.03;15.50;;;;;;;;;;2098001;28;20044;-46
2022/05/01 01:58:27;;;;;;;33.85;13.57;;;;;;;;;;2098082;28;20048;-46
2022/05/01 01:59:28;;;;;;;33.05;16.63;;;;;;;;;;2097907;28;20383;-46
2022/05/01 02:00:29;;;;;;;35.65;15.70;;;;;;;;;;2103829;28;20102;-46
2022/05/01 02:01:30;;;;;;;32.33;15.90;;;;;;;;;;2106363;28;20090;-47
2022/05/01 02:02:32;;;;;;;28.30;15.05;;;;;;;;;;2106332;28;20351;-47
2022/05/01 02:03:33;;;;;;;36.22;16.15;;;;;;;;;;2106142;28;20519;-46
2022/05/01 02:04:34;;;;;;;29.67;15.13;;;;;;;;;;2106206;28;20485;-46
2022/05/01 02:05:35;;;;;;;33.60;17.45;;;;;;;;;;2106625;28;20067;-58
2022/05/01 02:06:37;;;;;;;29.20;13.77;;;;;;;;;;2106231;28;20051;-58
2022/05/01 02:07:40;;;;;;;31.13;13.17;;;;;;;;;;2106210;28;20408;-58
2022/05/01 02:08:42;;;;;;;32.85;14.63;;;;;;;;;;2106091;28;20281;-58
2022/05/01 02:09:43;;;;;;;31.83;16.38;;;;;;;;;;2106288;28;20090;-58
2022/05/01 02:10:46;;;;;;;32.42;13.68;;;;;;;;;;2106203;28;20052;-58
2022/05/01 02:11:47;;;;;;;29.83;14.05;;;;;;;;;;2106193;28;20048;-58
2022/05/01 02:12:48;;;;;;;30.27;15.30;;;;;;;;;;2106167;28;20481;-58
2022/05/01 02:13:50;;;;;;;33.92;17.23;;;;;;;;;;2106052;28;20036;-58
2022/05/01 02:14:51;;;;;;;33.30;14.25;;;;;;;;;;2106275;28;20040;-58
2022/05/01 02:15:52;;;;;;;30.90;15.88;;;;;;;;;;2106156;28;20048;-58
2022/05/01 02:16:55;;;;;;;33.75;14.60;;;;;;;;;;2106231;28;20483;-58
2022/05/01 02:17:58;;;;;;;33.80;17.35;;;;;;;;;;2106053;28;20063;-58
2022/05/01 02:18:59;;;;;;;31.77;14.82;;;;;;;;;;2100387;28;20409;-57
2022/05/01 02:20:00;;;;;;;31.35;14.60;;;;;;;;;;2097702;28;20045;-58
2022/05/01 02:22:21;;;;;;;29.52;13.88;;;;;;;;;;2097632;28;20041;-58
2022/05/01 02:23:23;;;;;;;;;;;;;;;;;;2098180;28;20045;-58
2022/05/01 02:24:25;;;;;;;32.70;13.87;;;;;;;;;;2098294;28;20008;-58
2022/05/01 02:25:28;;;;;;;31.80;16.60;;;;;;;;;;2097832;28;20273;-58
2022/05/01 02:26:29;;;;;;;29.40;13.90;;;;;;;;;;2097818;28;20060;-58
2022/05/01 02:27:30;;;;;;;29.10;14.27;;;;;;;;;;2097602;28;20409;-46
2022/05/01 02:28:31;;;;;;;29.27;14.50;;;;;;;;;;2097508;28;20132;-46
2022/05/01 02:29:32;;;;;;;31.17;15.18;;;;;;;;;;2097865;28;20048;-46
2022/05/01 02:30:33;;;;;;;33.10;15.68;;;;;;;;;;2097886;28;20131;-58
2022/05/01 02:31:35;;;;;;;33.85;15.40;;;;;;;;;;2097770;28;20048;-58
2022/05/01 02:32:36;;;;;;;32.53;15.00;;;;;;;;;;2097820;28;20597;-46
2022/05/01 02:33:38;;;;;;;29.38;15.07;;;;;;;;;;2097640;28;20067;-46
2022/05/01 02:34:40;;;;;;;33.92;15.52;;;;;;;;;;2097679;28;20048;-46
2022/05/01 02:35:41;;;;;;;29.65;14.80;;;;;;;;;;2097660;28;20055;-46
2022/05/01 02:36:42;;;;;;;32.58;14.88;;;;;;;;;;2097773;28;20153;-46
2022/05/01 02:37:45;;;;;;;27.35;15.27;;;;;;;;;;2097712;28;20055;-46
2022/05/01 02:38:47;;;;;;;31.65;13.70;;;;;;;;;;2097663;28;20044;-46
2022/05/01 02:39:48;;;;;;;31.85;17.60;;;;;;;;;;2097578;28;20045;-46
2022/05/01 02:40:50;;;;;;;30.95;13.90;;;;;;;;;;2097686;28;20040;-46
2022/05/01 02:41:51;;;;;;;34.10;14.35;;;;;;;;;;2097534;28;20383;-46
2022/05/01 02:42:52;;;;;;;29.70;14.38;;;;;;;;;;2097541;28;20561;-46
2022/05/01 02:43:54;;;;;;;35.17;14.98;;;;;;;;;;2097651;28;20133;-46
2022/05/01 02:44:57;;;;;;;36.03;17.85;;;;;;;;;;2097822;28;20049;-58
2022/05/01 02:45:58;;;;;;;30.95;13.63;;;;;;;;;;2097738;28;20045;-58
2022/05/01 02:46:59;;;;;;;29.73;14.57;;;;;;;;;;2097585;28;20463;-58
2022/05/01 02:48:00;;;;;;;31.42;14.75;;;;;;;;;;2097665;28;20068;-58
2022/05/01 02:49:01;;;;;;;26.77;14.57;;;;;;;;;;2097516;28;20661;-58
2022/05/01 02:50:03;;;;;;;32.72;15.57;;;;;;;;;;2097720;28;20044;-58
2022/05/01 02:51:04;;;;;;;30.40;14.85;;;;;;;;;;2097823;28;20078;-58
2022/05/01 02:52:05;;;;;;;34.00;15.07;;;;;;;;;;2097673;28;20045;-58
2022/05/01 02:53:06;;;;;;;30.23;15.13;;;;;;;;;;2097555;28;20498;-58
2022/05/01 02:54:07;;;;;;;35.13;16.70;;;;;;;;;;2097383;28;20163;-57
2022/05/01 02:55:09;;;;;;;38.38;16.02;;;;;;;;;;2097709;28;20067;-46
2022/05/01 02:56:11;;;;;;;31.15;15.35;;;;;;;;;;2098774;28;20040;-46
2022/05/01 02:57:12;;;;;;;37.25;19.05;;;;;;;;;;2105854;28;20150;-46
2022/05/01 02:58:13;;;;;;;31.75;14.38;;;;;;;;;;2105807;28;20143;-47
2022/05/01 02:59:14;;;;;;;32.70;15.18;;;;;;;;;;2105817;28;20051;-46
2022/05/01 03:00:17;;;;;;;31.90;14.65;;;;;;;;;;2106000;28;20113;-46
2022/05/01 03:01:18;;;;;;;32.88;15.80;;;;;;;;;;2105895;28;20489;-50
2022/05/01 03:02:19;;;;;;;27.00;14.20;;;;;;;;;;2106101;28;20044;-58
2022/05/01 03:03:20;;;;;;;33.13;15.10;;;;;;;;;;2105820;28;20554;-58
2022/05/01 03:04:22;;;;;;;32.90;15.27;;;;;;;;;;2105778;28;20048;-58
2022/05/01 03:05:24;;;;;;;32.17;17.00;;;;;;;;;;2105847;28;20478;-58
2022/05/01 03:06:25;;;;;;;28.80;15.60;;;;;;;;;;2105928;28;20044;-58
2022/05/01 03:07:26;;;;;;;34.95;14.52;;;;;;;;;;2105855;28;20131;-58
2022/05/01 03:08:27;;;;;;;34.40;15.35;;;;;;;;;;2105978;28;20409;-58
2022/05/01 03:09:28;;;;;;;31.08;14.68;;;;;;;;;;2105830;28;20142;-58
2022/05/01 03:10:30;;;;;;;33.00;15.27;;;;;;;;;;2106037;28;20052;-58
2022/05/01 03:11:32;;;;;;;31.45;14.80;;;;;;;;;;2105742;28;20478;-58
2022/05/01 03:12:32;;;;;;;;;;;;;;;;;;2106236;28;20130;-58
2022/05/01 03:13:34;;;;;;;29.13;14.35;;;;;;;;;;2105687;28;19920;-58
2022/05/01 03:14:35;;;;;;;31.88;14.50;;;;;;;;;;2105860;28;20044;-58
2022/05/01 03:15:36;;;;;;;35.40;15.95;;;;;;;;;;2105786;28;20087;-58
2022/05/01 03:16:37;;;;;;;36.03;16.48;;;;;;;;;;2105881;28;20485;-46
2022/05/01 03:22:55;;;;;;;35.60;15.10;;;;;;;;;;2097448;28;20131;-58
2022/05/01 03:23:56;;;;;;;28.23;14.25;;;;;;;;;;2097322;28;20135;-58
2022/05/01 03:24:58;;;;;;;27.42;14.45;;;;;;;;;;2097330;28;20040;-58
2022/05/01 03:25:59;;;;;;;31.77;17.77;;;;;;;;;;2097354;28;20045;-58
2022/05/01 03:27:00;;;;;;;32.85;15.48;;;;;;;;;;2097212;28;20585;-58
2022/05/01 03:28:01;;;;;;;27.60;15.07;;;;;;;;;;2097364;28;20130;-58
2022/05/01 03:29:03;;;;;;;38.38;15.82;;;;;;;;;;2097438;28;20044;-58
2022/05/01 03:30:16;;;;;;;33.17;18.08;;;;;;;;;;2097434;28;20132;-58
2022/05/01 03:31:17;;;;;;;35.58;15.73;;;;;;;;;;2097671;28;20049;-58
2022/05/01 03:32:18;;;;;;;27.55;14.90;;;;;;;;;;2097273;28;20048;-58
2022/05/01 03:33:21;;;;;;;32.25;16.10;;;;;;;;;;2097448;28;20045;-58
2022/05/01 03:34:23;;;;;;;29.75;17.00;;;;;;;;;;2097247;28;20066;-58
2022/05/01 03:35:25;;;;;;;34.05;16.52;;;;;;;;;;2097217;28;20055;-58
2022/05/01 03:36:26;;;;;;;36.63;16.25;;;;;;;;;;2097329;28;20052;-58
2022/05/01 03:37:29;;;;;;;31.15;16.27;;;;;;;;;;2097645;28;20058;-47
2022/05/01 03:38:30;;;;;;;31.15;13.13;;;;;;;;;;2097110;28;20516;-47
2022/05/01 03:39:31;;;;;;;37.30;16.35;;;;;;;;;;2096295;28;20529;-46
2022/05/01 03:40:35;;;;;;;34.45;15.82;;;;;;;;;;2096511;28;20076;-47
2022/05/01 03:41:38;;;;;;;32.05;17.95;;;;;;;;;;2097319;28;20052;-46
2022/05/01 03:42:39;;;;;;;34.38;17.05;;;;;;;;;;2097488;28;20048;-47
2022/05/01 03:43:41;;;;;;;36.10;18.50;;;;;;;;;;2097123;28;20048;-46
2022/05/01 03:44:42;;;;;;;32.50;15.80;;;;;;;;;;2097344;28;20135;-46
2022/05/01 03:45:43;;;;;;;36.28;17.90;;;;;;;;;;2097080;28;20044;-47
2022/05/01 03:46:44;;;;;;;34.22;18.30;;;;;;;;;;2097400;28;20045;-47
2022/05/01 03:47:46;;;;;;;32.50;14.73;;;;;;;;;;2097244;28;20164;-47
2022/05/01 03:48:47;;;;;;;34.03;18.13;;;;;;;;;;2097233;28;20059;-47
2022/05/01 03:49:48;;;;;;;35.00;16.55;;;;;;;;;;2097211;28;20405;-47
2022/05/01 03:50:49;;;;;;;;;;;;;;;;;;2097639;28;20513;-46
2022/05/01 03:51:50;;;;;;;37.42;14.90;;;;;;;;;;2097154;28;19963;-46
2022/05/01 03:52:52;;;;;;;27.40;16.00;;;;;;;;;;2097153;28;20397;-46
2022/05/01 03:53:53;;;;;;;34.08;16.67;;;;;;;;;;2097052;28;20044;-47
2022/05/01 03:54:54;;;;;;;33.17;16.05;;;;;;;;;;2097368;28;20066;-47
2022/05/01 03:55:55;;;;;;;32.17;18.00;;;;;;;;;;2097314;28;20051;-46
2022/05/01 03:56:57;;;;;;;34.15;17.77;;;;;;;;;;2097098;28;20127;-47
2022/05/01 03:57:58;;;;;;;33.78;14.48;;;;;;;;;;2097286;28;20048;-47
2022/05/01 03:59:00;;;;;;;31.60;17.02;;;;;;;;;;2097072;28;20131;-46
2022/05/01 04:00:01;;;;;;;33.83;16.65;;;;;;;;;;2097122;28;20070;-46
2022/05/01 04:01:02;;;;;;;32.35;17.83;;;;;;;;;;2097182;28;20127;-46
2022/05/01 04:02:03;;;;;;;32.78;18.50;;;;;;;;;;2097070;28;20448;-46
2022/05/01 04:03:05;;;;;;;30.60;16.65;;;;;;;;;;2097189;28;20375;-46
2022/05/01 04:04:06;;;;;;;35.05;18.27;;;;;;;;;;2097242;28;20585;-46
2022/05/01 04:05:07;;;;;;;35.38;18.05;;;;;;;;;;2097133;28;20114;-47
2022/05/01 04:06:08;;;;;;;31.67;16.02;;;;;;;;;;2097080;28;20090;-46
2022/05/01 04:07:09;;;;;;;32.63;18.42;;;;;;;;;;2097703;28;20158;-58
2022/05/01 04:08:11;;;;;;;33.22;18.45;;;;;;;;;;2097062;28;20087;-58
2022/05/01 04:09:12;;;;;;;32.55;18.13;;;;;;;;;;2097072;28;20088;-57
2022/05/01 04:10:13;;;;;;;32.35;16.35;;;;;;;;;;2097426;28;20079;-47
2022/05/01 04:11:14;;;;;;;34.92;17.17;;;;;;;;;;2097241;28;20072;-47
2022/05/01 04:12:16;;;;;;;26.60;15.63;;;;;;;;;;2097179;28;20535;-46
2022/05/01 04:13:18;;;;;;;32.63;17.48;;;;;;;;;;2097248;28;20616;-46
2022/05/01 04:14:19;;;;;;;34.80;18.17;;;;;;;;;;2097052;28;20076;-47
2022/05/01 04:15:20;;;;;;;31.33;16.43;;;;;;;;;;2097186;28;20045;-46
2022/05/01 04:16:21;;;;;;;32.10;16.70;;;;;;;;;;2097049;28;20458;-46
2022/05/01 04:17:22;;;;;;;31.63;16.27;;;;;;;;;;2097046;28;20075;-46
2022/05/01 04:18:23;;;;;;;32.65;17.10;;;;;;;;;;2096938;28;20282;-46
2022/05/01 04:19:24;;;;;;;29.77;16.42;;;;;;;;;;2096986;28;20125;-46
2022/05/01 04:20:26;;;;;;;30.60;15.55;;;;;;;;;;2097152;28;20063;-46
2022/05/01 04:21:27;;;;;;;31.63;16.67;;;;;;;;;;2097177;28;20490;-58
2022/05/01 04:22:28;;;;;;;30.10;16.77;;;;;;;;;;2096957;28;20131;-58
2022/05/01 04:23:29;;;;;;;31.35;15.75;;;;;;;;;;2097019;28;20049;-59
2022/05/01 04:24:30;;;;;;;26.98;15.80;;;;;;;;;;2097043;28;20139;-59
2022/05/01 04:25:31;;;;;;;34.13;16.90;;;;;;;;;;2097101;28;20076;-58
2022/05/01 04:26:32;;;;;;;34.60;15.88;;;;;;;;;;2097220;28;20185;-59
2022/05/01 04:27:34;;;;;;;29.35;16.33;;;;;;;;;;2097118;28;20536;-59
2022/05/01 04:28:35;;;;;;;32.28;16.60;;;;;;;;;;2096849;28;20409;-59
2022/05/01 04:29:36;;;;;;;31.63;16.65;;;;;;;;;;2097111;28;20052;-59
2022/05/01 04:30:38;;;;;;;30.42;17.13;;;;;;;;;;2096960;28;20069;-59
2022/05/01 04:31:39;;;;;;;26.85;16.52;;;;;;;;;;2097143;28;20131;-59
2022/05/01 04:32:50;;;;;;;31.33;16.05;;;;;;;;;;2096989;28;20122;-59
2022/05/01 04:33:51;;;;;;;29.35;16.45;;;;;;;;;;2096882;28;20054;-46
2022/05/01 04:34:53;;;;;;;28.73;16.88;;;;;;;;;;2097095;28;20119;-46
2022/05/01 04:35:54;;;;;;;;;;;;;;;;;;2097629;28;20544;-46
2022/05/01 04:36:55;;;;;;;30.77;16.73;;;;;;;;;;2096951;28;20391;-46
2022/05/01 04:37:59;;;;;;;30.48;15.65;;;;;;;;;;2097097;28;20452;-46
2022/05/01 04:39:00;;;;;;;32.17;16.55;;;;;;;;;;2096938;28;20041;-46
2022/05/01 04:40:01;;;;;;;29.10;17.08;;;;;;;;;;2097058;28;20051;-46
2022/05/01 04:41:04;;;;;;;38.95;18.48;;;;;;;;;;2097127;28;20396;-46
2022/05/01 04:42:05;;;;;;;33.53;17.13;;;;;;;;;;2096793;28;20401;-46
2022/05/01 04:43:08;;;;;;;29.58;17.13;;;;;;;;;;2096889;28;20433;-46
2022/05/01 04:44:09;;;;;;;27.77;16.67;;;;;;;;;;2096762;28;20505;-47
2022/05/01 04:45:11;;;;;;;32.90;17.83;;;;;;;;;;2097063;28;20063;-47
2022/05/01 04:46:11;;;;;;;;;;;;;;;;;;2097644;28;20074;-59
2022/05/01 04:47:12;;;;;;;32.38;16.63;;;;;;;;;;2096912;28;19974;-59
2022/05/01 04:48:14;;;;;;;25.67;16.70;;;;;;;;;;2096918;28;20465;-58
2022/05/01 04:49:16;;;;;;;30.83;17.25;;;;;;;;;;2103104;28;20135;-58
2022/05/01 04:50:19;;;;;;;26.52;16.25;;;;;;;;;;2105627;28;20043;-58
2022/05/01 04:51:20;;;;;;;35.00;17.58;;;;;;;;;;2106141;28;20048;-58
2022/05/01 04:52:21;;;;;;;34.83;16.20;;;;;;;;;;2106716;28;20048;-58
2022/05/01 04:53:22;;;;;;;31.05;17.65;;;;;;;;;;2106768;28;20066;-58
2022/05/01 04:54:23;;;;;;;32.35;17.88;;;;;;;;;;2106638;28;20052;-58
2022/05/01 04:55:24;;;;;;;34.38;16.98;;;;;;;;;;2106912;28;20048;-58
2022/05/01 04:57:44;;;;;;;27.10;15.60;;;;;;;;;;2106645;28;20040;-59
2022/05/01 04:58:47;;;;;;;28.88;16.05;;;;;;;;;;2106632;28;20378;-59
2022/05/01 04:59:48;;;;;;;26.20;15.45;;;;;;;;;;2106569;28;20127;-59
2022/05/01 05:00:49;;;;;;;31.98;15.50;;;;;;;;;;2106980;28;20048;-58
2022/05/01 05:01:51;;;;;;;30.42;16.48;;;;;;;;;;2106597;28;20047;-58
2022/05/01 05:02:53;;;;;;;29.33;15.65;;;;;;;;;;2106996;28;20055;-59
2022/05/01 05:03:54;;;;;;;30.15;15.63;;;;;;;;;;2106594;28;20083;-56
2022/05/01 05:04:55;;;;;;;27.23;15.82;;;;;;;;;;2101124;28;20131;-59
2022/05/01 05:05:56;;;;;;;28.45;15.55;;;;;;;;;;2098279;28;20156;-59
2022/05/01 05:06:57;;;;;;;28.58;16.33;;;;;;;;;;2098528;28;20040;-59
2022/05/01 05:09:53;;;;;;;30.77;16.13;;;;;;;;;;2098417;28;20395;-59
2022/05/01 05:10:39;;;;;;;25.02;13.77;;;;;;;;;;2098288;28;20048;-46
2022/05/01 05:11:41;;;;;;;23.67;13.27;;;;;;;;;;2098324;28;20098;-48
2022/05/01 05:12:42;;;;;;;24.20;13.77;;;;;;;;;;2098340;28;20105;-45
2022/05/01 05:13:43;;;;;;;;;;;;;;;;;;2098538;28;20139;-47
2022/05/01 05:14:49;;;;;;;19.23;11.40;;;;;;;;;;2098291;28;19947;-46
2022/05/01 05:15:50;;;;;;;19.65;11.07;;;;;;;;;;2098120;28;20060;-47
2022/05/01 05:16:51;;;;;;;21.00;11.18;;;;;;;;;;2098282;28;20174;-47
2022/05/01 05:17:52;;;;;;;19.55;11.52;;;;;;;;;;2098184;28;20051;-47
2022/05/01 05:18:53;;;;;;;17.98;10.80;;;;;;;;;;2098088;28;20048;-47
2022/05/01 05:19:55;;;;;;;20.90;11.30;;;;;;;;;;2098169;28;20063;-47
2022/05/01 05:20:56;;;;;;;19.35;10.30;;;;;;;;;;2098069;28;20488;-46
2022/05/01 05:21:57;;;;;;;19.45;10.52;;;;;;;;;;2098217;28;20052;-47
2022/05/01 05:22:58;;;;;;;18.88;11.68;;;;;;;;;;2098225;28;20045;-48
2022/05/01 05:23:59;;;;;;;18.05;10.82;;;;;;;;;;2098390;28;20072;-47
2022/05/01 05:25:00;;;;;;;15.90;8.45;;;;;;;;;;2098163;28;20054;-47
2022/05/01 05:26:01;;;;;;;15.32;8.60;;;;;;;;;;2098428;28;20055;-46
2022/05/01 05:27:03;;;;;;;16.42;8.10;;;;;;;;;;2098302;28;20045;-60
2022/05/01 05:28:06;;;;;;;11.90;6.72;;;;;;;;;;2098290;28;20098;-60
2022/05/01 05:29:08;;;;;;;11.10;6.72;;;;;;;;;;2097987;28;20144;-59
2022/05/01 05:30:11;;;;;;;10.32;7.03;;;;;;;;;;2098149;28;20051;-59
2022/05/01 05:31:12;;;;;;;12.82;6.65;;;;;;;;;;2098079;28;20127;-60
2022/05/01 05:32:13;;;;;;;9.63;5.57;;;;;;;;;;2098189;28;20052;-59
2022/05/01 05:33:14;;;;;;;11.70;5.90;;;;;;;;;;2098185;28;20273;-59
2022/05/01 05:34:16;;;;;;;12.32;5.85;;;;;;;;;;2098132;28;20094;-60
2022/05/01 05:35:17;;;;;;;9.50;5.22;;;;;;;;;;2098363;28;20052;-48
2022/05/01 05:36:18;;;;;;;10.70;5.88;;;;;;;;;;2098013;28;20542;-47
2022/05/01 05:37:19;;;;;;;8.50;4.97;;;;;;;;;;2098157;28;20113;-47
2022/05/01 05:38:20;;;;;;;6.75;3.97;;;;;;;;;;2097855;28;20364;-46
2022/05/01 05:39:21;;;;;;;9.32;4.95;;;;;;;;;;2098084;28;20282;-46
2022/05/01 05:40:23;;;;;;;4.47;3.20;;;;;;;;;;2098160;28;20129;-46
2022/05/01 05:41:23;;;;;;;4.03;2.60;;;;;;;;;;2098165;28;20055;-46
2022/05/01 05:42:25;;;;;;;6.50;3.50;;;;;;;;;;2098034;28;20055;-46
2022/05/01 05:43:26;;;;;;;7.10;3.92;;;;;;;;;;2098149;28;20044;-47
2022/05/01 05:44:27;;;;;;;6.55;3.53;;;;;;;;;;2098140;28;20406;-46
2022/05/01 05:45:28;;;;;;;6.72;2.65;;;;;;;;;;2103864;28;20043;-46
2022/05/01 05:46:30;;;;;;;4.35;2.65;;;;;;;;;;2106470;28;20150;-47
2022/05/01 05:47:31;;;;;;;5.45;2.38;;;;;;;;;;2106450;28;20048;-46
2022/05/01 05:48:32;;;;;;;6.32;2.80;;;;;;;;;;2106210;28;20067;-45
2022/05/01 05:49:33;;;;;;;4.60;2.40;;;;;;;;;;2106488;28;20607;-46
2022/05/01 05:50:34;;;;;;;6.65;2.35;;;;;;;;;;2106448;28;20284;-46
2022/05/01 05:51:35;;;;;;;3.53;2.20;;;;;;;;;;2106260;28;20497;-46
2022/05/01 05:52:37;;;;;;;3.72;2.20;;;;;;;;;;2106407;28;20054;-46
2022/05/01 05:53:38;;;;;;;4.50;2.55;;;;;;;;;;2106280;28;20056;-46
2022/05/01 05:54:39;;;;;;;4.47;2.47;;;;;;;;;;2106578;28;20077;-59
2022/05/01 05:55:40;;;;;;;6.32;2.67;;;;;;;;;;2106614;28;20131;-60
2022/05/01 05:56:41;;;;;;;5.27;2.50;;;;;;;;;;2106378;28;20044;-60
2022/05/01 05:57:42;;;;;;;6.63;2.72;;;;;;;;;;2106464;28;20181;-60
2022/05/01 05:58:43;;;;;;;4.60;1.97;;;;;;;;;;2106436;28;20140;-61
2022/05/01 05:59:44;;;;;;;3.22;1.90;;;;;;;;;;2106415;28;20187;-61
2022/05/01 06:00:47;;;;;;;5.47;2.08;;;;;;;;;;2106411;28;20478;-46
2022/05/01 06:01:47;;;;;;;4.50;2.65;;;;;;;;;;2106264;28;20044;-46
2022/05/01 06:02:49;;;;;;;3.65;2.15;;;;;;;;;;2105210;28;20106;-46
2022/05/01 06:03:50;;;;;;;3.67;1.50;;;;;;;;;;2106232;28;20054;-46
2022/05/01 06:04:51;;;;;;;3.73;2.10;;;;;;;;;;2106287;28;20588;-46
2022/05/01 06:05:52;;;;;;;3.15;1.85;;;;;;;;;;2106517;28;20396;-60
2022/05/01 06:06:53;;;;;;;3.60;1.70;;;;;;;;;;2106283;28;20074;-59
2022/05/01 06:07:54;;;;;;;4.70;1.98;;;;;;;;;;2106435;28;20450;-47
2022/05/01 06:08:55;;;;;;;3.20;2.07;;;;;;;;;;2106242;28;20079;-47
2022/05/01 06:09:56;;;;;;;2.95;1.85;;;;;;;;;;2106344;28;20144;-60
2022/05/01 06:10:58;;;;;;;3.80;2.13;;;;;;;;;;2106193;28;20051;-60
2022/05/01 06:11:59;;;;;;;;;;;;;;;;;;2106626;28;20512;-60
2022/05/01 06:13:00;;;;;;;2.25;1.35;;;;;;;;;;2106305;28;20356;-60
2022/05/01 06:14:02;;;;;;;3.97;1.90;;;;;;;;;;2106084;28;20044;-60
2022/05/01 06:15:03;;;;;;;2.85;1.95;;;;;;;;;;2106468;28;20048;-60
2022/05/01 06:16:05;;;;;;;3.13;1.73;;;;;;;;;;2106430;28;20062;-60
2022/05/01 06:17:06;;;;;;;3.35;2.15;;;;;;;;;;2106345;28;20052;-46
2022/05/01 06:18:07;;;;;;;4.30;1.57;;;;;;;;;;2106118;28;20059;-46
2022/05/01 06:19:08;;;;;;;2.53;1.58;;;;;;;;;;2099228;28;20097;-46